Mammoth, Utah
Current Conditions -  °F | °C
As of 10:55 PM on Sunday 19 Oct 2014 (Local Time) from KDTA Reporting Station
Clear Clear  
Wind Chill: 55°   Ceiling: Unl
Heat Index: 55°   Visibility: 10mi
Dew Point: 33°   Wind: 0mph
Humidity: 43%   Direction: NA
Pressure: 30.06"   Gusts: NA
Location:  39.7579°N, 112.326°W
Report Text: KDTA 200455Z AUTO 00000KT 10SM CLR 13/00 A3006 RMK AO1 T01290004
Loading
Personal Weather Stations






























Interactive Weather Map
Tropical Storm Tracking
New forecast layout! Learn more

10-Day Weather Forecast

Advertisements
Track Severe Weather on mobile